<?xml version="1.0" encoding="UTF-8"?>
<gpx version="1.1" creator="GPSBabel - http://www.gpsbabel.org" xmlns="http://www.topografix.com/GPX/1/1" xmlns:xsi="http://www.w3.org/2001/XMLSchema-instance" xmlns:wptx1="http://www.garmin.com/xmlschemas/WaypointExtension/v1" xmlns:gpxtrx="http://www.garmin.com/xmlschemas/GpxExtensions/v3" xmlns:gpxtpx="http://www.garmin.com/xmlschemas/TrackPointExtension/v1" xmlns:gpxx="http://www.garmin.com/xmlschemas/GpxExtensions/v3" xmlns:trp="http://www.garmin.com/xmlschemas/TripExtensions/v1" xmlns:adv="http://www.garmin.com/xmlschemas/AdventuresExtensions/v1" xmlns:prs="http://www.garmin.com/xmlschemas/PressureExtension/v1" xmlns:tmd="http://www.garmin.com/xmlschemas/TripMetaDataExtensions/v1" xmlns:vptm="http://www.garmin.com/xmlschemas/ViaPointTransportationModeExtensions/v1" xmlns:ctx="http://www.garmin.com/xmlschemas/CreationTimeExtension/v1" xmlns:gpxacc="http://www.garmin.com/xmlschemas/AccelerationExtension/v1" xmlns:gpxpx="http://www.garmin.com/xmlschemas/PowerExtension/v1" xmlns:vidx1="http://www.garmin.com/xmlschemas/VideoExtension/v1">
  <metadata>
    <time>2024-11-07T10:08:54.813Z</time>
    <bounds minlat="45.524785006" minlon="5.317756981" maxlat="45.546833016" maxlon="5.353191979"/>
  </metadata>
  <trk>
    <name>randogps38-1838</name>
    <extensions>
      <gpxx:TrackExtension>
        <gpxx:DisplayColor>DarkGray</gpxx:DisplayColor>
      </gpxx:TrackExtension>
    </extensions>
    <trkseg>
      <trkpt lat="45.525089018" lon="5.353113022">
        <ele>502.000000</ele>
        <time>2024-11-01T07:26:43Z</time>
      </trkpt>
      <trkpt lat="45.524866981" lon="5.352857960">
        <ele>502.000000</ele>
        <time>2024-11-01T07:30:14Z</time>
      </trkpt>
      <trkpt lat="45.524952980" lon="5.352292014">
        <ele>502.000000</ele>
        <time>2024-11-01T07:30:49Z</time>
      </trkpt>
      <trkpt lat="45.524977036" lon="5.351899993">
        <ele>502.000000</ele>
        <time>2024-11-01T07:31:12Z</time>
      </trkpt>
      <trkpt lat="45.525167976" lon="5.351612996">
        <ele>502.000000</ele>
        <time>2024-11-01T07:32:48Z</time>
      </trkpt>
      <trkpt lat="45.525333015" lon="5.351283001">
        <ele>501.000000</ele>
        <time>2024-11-01T07:33:13Z</time>
      </trkpt>
      <trkpt lat="45.525427982" lon="5.350882011">
        <ele>500.000000</ele>
        <time>2024-11-01T07:33:42Z</time>
      </trkpt>
      <trkpt lat="45.525521021" lon="5.350487977">
        <ele>497.000000</ele>
        <time>2024-11-01T07:34:09Z</time>
      </trkpt>
      <trkpt lat="45.525618000" lon="5.350110037">
        <ele>494.000000</ele>
        <time>2024-11-01T07:34:39Z</time>
      </trkpt>
      <trkpt lat="45.525667034" lon="5.349725978">
        <ele>492.000000</ele>
        <time>2024-11-01T07:35:06Z</time>
      </trkpt>
      <trkpt lat="45.525670974" lon="5.349320965">
        <ele>491.000000</ele>
        <time>2024-11-01T07:35:48Z</time>
      </trkpt>
      <trkpt lat="45.525812963" lon="5.348903965">
        <ele>489.000000</ele>
        <time>2024-11-01T07:36:04Z</time>
      </trkpt>
      <trkpt lat="45.526032988" lon="5.348610012">
        <ele>484.000000</ele>
        <time>2024-11-01T07:36:24Z</time>
      </trkpt>
      <trkpt lat="45.526299030" lon="5.348487971">
        <ele>479.000000</ele>
        <time>2024-11-01T07:36:44Z</time>
      </trkpt>
      <trkpt lat="45.526559036" lon="5.348299965">
        <ele>475.000000</ele>
        <time>2024-11-01T07:37:07Z</time>
      </trkpt>
      <trkpt lat="45.526677975" lon="5.347952032">
        <ele>474.000000</ele>
        <time>2024-11-01T07:37:28Z</time>
      </trkpt>
      <trkpt lat="45.526791969" lon="5.347562023">
        <ele>474.000000</ele>
        <time>2024-11-01T07:37:48Z</time>
      </trkpt>
      <trkpt lat="45.526946029" lon="5.347199002">
        <ele>473.000000</ele>
        <time>2024-11-01T07:38:09Z</time>
      </trkpt>
      <trkpt lat="45.527157001" lon="5.346955005">
        <ele>472.000000</ele>
        <time>2024-11-01T07:38:30Z</time>
      </trkpt>
      <trkpt lat="45.527460007" lon="5.346962968">
        <ele>470.000000</ele>
        <time>2024-11-01T07:39:02Z</time>
      </trkpt>
      <trkpt lat="45.527738035" lon="5.347021976">
        <ele>469.000000</ele>
        <time>2024-11-01T07:39:22Z</time>
      </trkpt>
      <trkpt lat="45.528017990" lon="5.347080985">
        <ele>468.000000</ele>
        <time>2024-11-01T07:39:43Z</time>
      </trkpt>
      <trkpt lat="45.528336000" lon="5.347061036">
        <ele>467.000000</ele>
        <time>2024-11-01T07:40:45Z</time>
      </trkpt>
      <trkpt lat="45.528603969" lon="5.346929021">
        <ele>466.000000</ele>
        <time>2024-11-01T07:41:05Z</time>
      </trkpt>
      <trkpt lat="45.528847966" lon="5.346707990">
        <ele>464.000000</ele>
        <time>2024-11-01T07:41:26Z</time>
      </trkpt>
      <trkpt lat="45.529078972" lon="5.346486960">
        <ele>463.000000</ele>
        <time>2024-11-01T07:41:47Z</time>
      </trkpt>
      <trkpt lat="45.529278042" lon="5.346204992">
        <ele>463.000000</ele>
        <time>2024-11-01T07:42:07Z</time>
      </trkpt>
      <trkpt lat="45.529437969" lon="5.345859993">
        <ele>463.000000</ele>
        <time>2024-11-01T07:42:30Z</time>
      </trkpt>
      <trkpt lat="45.529599991" lon="5.345537039">
        <ele>462.000000</ele>
        <time>2024-11-01T07:42:51Z</time>
      </trkpt>
      <trkpt lat="45.529769976" lon="5.345184999">
        <ele>462.000000</ele>
        <time>2024-11-01T07:43:14Z</time>
      </trkpt>
      <trkpt lat="45.529910037" lon="5.344812004">
        <ele>460.000000</ele>
        <time>2024-11-01T07:43:36Z</time>
      </trkpt>
      <trkpt lat="45.529965023" lon="5.344436998">
        <ele>455.000000</ele>
        <time>2024-11-01T07:44:08Z</time>
      </trkpt>
      <trkpt lat="45.530060995" lon="5.344558032">
        <ele>455.000000</ele>
        <time>2024-11-01T07:44:58Z</time>
      </trkpt>
      <trkpt lat="45.530298036" lon="5.344333984">
        <ele>447.000000</ele>
        <time>2024-11-01T07:46:17Z</time>
      </trkpt>
      <trkpt lat="45.530096032" lon="5.343840038">
        <ele>441.000000</ele>
        <time>2024-11-01T07:47:04Z</time>
      </trkpt>
      <trkpt lat="45.529902996" lon="5.343543990">
        <ele>439.000000</ele>
        <time>2024-11-01T07:47:35Z</time>
      </trkpt>
      <trkpt lat="45.529721025" lon="5.343240984">
        <ele>435.000000</ele>
        <time>2024-11-01T07:48:10Z</time>
      </trkpt>
      <trkpt lat="45.529685989" lon="5.342659028">
        <ele>424.000000</ele>
        <time>2024-11-01T07:49:15Z</time>
      </trkpt>
      <trkpt lat="45.529706022" lon="5.342259966">
        <ele>423.000000</ele>
        <time>2024-11-01T07:49:37Z</time>
      </trkpt>
      <trkpt lat="45.529866032" lon="5.341731990">
        <ele>425.000000</ele>
        <time>2024-11-01T07:50:20Z</time>
      </trkpt>
      <trkpt lat="45.529967034" lon="5.341376010">
        <ele>431.000000</ele>
        <time>2024-11-01T07:51:10Z</time>
      </trkpt>
      <trkpt lat="45.530062001" lon="5.341006033">
        <ele>439.000000</ele>
        <time>2024-11-01T07:51:54Z</time>
      </trkpt>
      <trkpt lat="45.529836025" lon="5.340561038">
        <ele>445.000000</ele>
        <time>2024-11-01T07:53:13Z</time>
      </trkpt>
      <trkpt lat="45.529674003" lon="5.340251997">
        <ele>452.000000</ele>
        <time>2024-11-01T07:53:46Z</time>
      </trkpt>
      <trkpt lat="45.529393964" lon="5.339838015">
        <ele>457.000000</ele>
        <time>2024-11-01T07:54:32Z</time>
      </trkpt>
      <trkpt lat="45.529163964" lon="5.339376004">
        <ele>466.000000</ele>
        <time>2024-11-01T07:55:40Z</time>
      </trkpt>
      <trkpt lat="45.528909992" lon="5.339253964">
        <ele>469.000000</ele>
        <time>2024-11-01T07:56:08Z</time>
      </trkpt>
      <trkpt lat="45.528689967" lon="5.339032011">
        <ele>470.000000</ele>
        <time>2024-11-01T07:56:42Z</time>
      </trkpt>
      <trkpt lat="45.528701032" lon="5.338453995">
        <ele>469.000000</ele>
        <time>2024-11-01T07:57:17Z</time>
      </trkpt>
      <trkpt lat="45.528702959" lon="5.338062979">
        <ele>469.000000</ele>
        <time>2024-11-01T07:57:39Z</time>
      </trkpt>
      <trkpt lat="45.528700026" lon="5.337656960">
        <ele>468.000000</ele>
        <time>2024-11-01T07:58:01Z</time>
      </trkpt>
      <trkpt lat="45.528655015" lon="5.337083973">
        <ele>468.000000</ele>
        <time>2024-11-01T07:58:33Z</time>
      </trkpt>
      <trkpt lat="45.528653003" lon="5.336684994">
        <ele>467.000000</ele>
        <time>2024-11-01T07:58:55Z</time>
      </trkpt>
      <trkpt lat="45.528680999" lon="5.336287022">
        <ele>467.000000</ele>
        <time>2024-11-01T07:59:16Z</time>
      </trkpt>
      <trkpt lat="45.528717041" lon="5.335710011">
        <ele>467.000000</ele>
        <time>2024-11-01T07:59:49Z</time>
      </trkpt>
      <trkpt lat="45.528747970" lon="5.335298963">
        <ele>466.000000</ele>
        <time>2024-11-01T08:00:14Z</time>
      </trkpt>
      <trkpt lat="45.528780995" lon="5.334903002">
        <ele>466.000000</ele>
        <time>2024-11-01T08:00:34Z</time>
      </trkpt>
      <trkpt lat="45.528790969" lon="5.334468987">
        <ele>466.000000</ele>
        <time>2024-11-01T08:00:58Z</time>
      </trkpt>
      <trkpt lat="45.528814020" lon="5.334063973">
        <ele>466.000000</ele>
        <time>2024-11-01T08:01:20Z</time>
      </trkpt>
      <trkpt lat="45.528829023" lon="5.333644040">
        <ele>465.000000</ele>
        <time>2024-11-01T08:01:44Z</time>
      </trkpt>
      <trkpt lat="45.528768003" lon="5.333259981">
        <ele>465.000000</ele>
        <time>2024-11-01T08:02:06Z</time>
      </trkpt>
      <trkpt lat="45.528702037" lon="5.332885981">
        <ele>465.000000</ele>
        <time>2024-11-01T08:02:27Z</time>
      </trkpt>
      <trkpt lat="45.528602041" lon="5.332463030">
        <ele>465.000000</ele>
        <time>2024-11-01T08:02:53Z</time>
      </trkpt>
      <trkpt lat="45.528515959" lon="5.332084000">
        <ele>463.000000</ele>
        <time>2024-11-01T08:03:17Z</time>
      </trkpt>
      <trkpt lat="45.528445970" lon="5.331682004">
        <ele>461.000000</ele>
        <time>2024-11-01T08:03:40Z</time>
      </trkpt>
      <trkpt lat="45.528342035" lon="5.331304986">
        <ele>461.000000</ele>
        <time>2024-11-01T08:04:03Z</time>
      </trkpt>
      <trkpt lat="45.528285960" lon="5.330897961">
        <ele>460.000000</ele>
        <time>2024-11-01T08:04:26Z</time>
      </trkpt>
      <trkpt lat="45.528325019" lon="5.330525972">
        <ele>460.000000</ele>
        <time>2024-11-01T08:04:50Z</time>
      </trkpt>
      <trkpt lat="45.528475977" lon="5.330164963">
        <ele>460.000000</ele>
        <time>2024-11-01T08:05:18Z</time>
      </trkpt>
      <trkpt lat="45.528642023" lon="5.329813007">
        <ele>461.000000</ele>
        <time>2024-11-01T08:05:45Z</time>
      </trkpt>
      <trkpt lat="45.528877974" lon="5.329576973">
        <ele>463.000000</ele>
        <time>2024-11-01T08:06:14Z</time>
      </trkpt>
      <trkpt lat="45.529062962" lon="5.329269022">
        <ele>466.000000</ele>
        <time>2024-11-01T08:07:32Z</time>
      </trkpt>
      <trkpt lat="45.529128006" lon="5.328877000">
        <ele>469.000000</ele>
        <time>2024-11-01T08:07:57Z</time>
      </trkpt>
      <trkpt lat="45.529200006" lon="5.328492019">
        <ele>469.000000</ele>
        <time>2024-11-01T08:08:24Z</time>
      </trkpt>
      <trkpt lat="45.529331015" lon="5.328151966">
        <ele>467.000000</ele>
        <time>2024-11-01T08:08:46Z</time>
      </trkpt>
      <trkpt lat="45.529625975" lon="5.327756004">
        <ele>469.000000</ele>
        <time>2024-11-01T08:09:23Z</time>
      </trkpt>
      <trkpt lat="45.529838959" lon="5.327464985">
        <ele>470.000000</ele>
        <time>2024-11-01T08:09:54Z</time>
      </trkpt>
      <trkpt lat="45.530055966" lon="5.327196009">
        <ele>470.000000</ele>
        <time>2024-11-01T08:10:24Z</time>
      </trkpt>
      <trkpt lat="45.530253025" lon="5.326912031">
        <ele>473.000000</ele>
        <time>2024-11-01T08:10:55Z</time>
      </trkpt>
      <trkpt lat="45.530428961" lon="5.326600978">
        <ele>477.000000</ele>
        <time>2024-11-01T08:11:30Z</time>
      </trkpt>
      <trkpt lat="45.530627025" lon="5.326320017">
        <ele>481.000000</ele>
        <time>2024-11-01T08:12:02Z</time>
      </trkpt>
      <trkpt lat="45.530874962" lon="5.326162018">
        <ele>486.000000</ele>
        <time>2024-11-01T08:12:26Z</time>
      </trkpt>
      <trkpt lat="45.531131029" lon="5.326030003">
        <ele>487.000000</ele>
        <time>2024-11-01T08:13:22Z</time>
      </trkpt>
      <trkpt lat="45.531398999" lon="5.325879967">
        <ele>485.000000</ele>
        <time>2024-11-01T08:13:44Z</time>
      </trkpt>
      <trkpt lat="45.531666968" lon="5.325732026">
        <ele>485.000000</ele>
        <time>2024-11-01T08:14:08Z</time>
      </trkpt>
      <trkpt lat="45.531934015" lon="5.325587019">
        <ele>485.000000</ele>
        <time>2024-11-01T08:14:31Z</time>
      </trkpt>
      <trkpt lat="45.532193016" lon="5.325444024">
        <ele>485.000000</ele>
        <time>2024-11-01T08:14:53Z</time>
      </trkpt>
      <trkpt lat="45.532464003" lon="5.325306980">
        <ele>485.000000</ele>
        <time>2024-11-01T08:15:22Z</time>
      </trkpt>
      <trkpt lat="45.532731973" lon="5.325175971">
        <ele>485.000000</ele>
        <time>2024-11-01T08:16:04Z</time>
      </trkpt>
      <trkpt lat="45.533000026" lon="5.325042028">
        <ele>485.000000</ele>
        <time>2024-11-01T08:16:32Z</time>
      </trkpt>
      <trkpt lat="45.533295991" lon="5.324958041">
        <ele>485.000000</ele>
        <time>2024-11-01T08:16:56Z</time>
      </trkpt>
      <trkpt lat="45.533535965" lon="5.324730976">
        <ele>483.000000</ele>
        <time>2024-11-01T08:17:17Z</time>
      </trkpt>
      <trkpt lat="45.533764036" lon="5.324494019">
        <ele>481.000000</ele>
        <time>2024-11-01T08:17:43Z</time>
      </trkpt>
      <trkpt lat="45.533928992" lon="5.324178021">
        <ele>480.000000</ele>
        <time>2024-11-01T08:18:04Z</time>
      </trkpt>
      <trkpt lat="45.534041980" lon="5.323789017">
        <ele>477.000000</ele>
        <time>2024-11-01T08:18:30Z</time>
      </trkpt>
      <trkpt lat="45.534134014" lon="5.323407976">
        <ele>475.000000</ele>
        <time>2024-11-01T08:18:53Z</time>
      </trkpt>
      <trkpt lat="45.534240967" lon="5.323035987">
        <ele>470.000000</ele>
        <time>2024-11-01T08:19:19Z</time>
      </trkpt>
      <trkpt lat="45.534315985" lon="5.322644971">
        <ele>465.000000</ele>
        <time>2024-11-01T08:19:51Z</time>
      </trkpt>
      <trkpt lat="45.534407012" lon="5.322273988">
        <ele>461.000000</ele>
        <time>2024-11-01T08:20:21Z</time>
      </trkpt>
      <trkpt lat="45.534630977" lon="5.322044995">
        <ele>455.000000</ele>
        <time>2024-11-01T08:20:48Z</time>
      </trkpt>
      <trkpt lat="45.534683028" lon="5.321667977">
        <ele>450.000000</ele>
        <time>2024-11-01T08:21:23Z</time>
      </trkpt>
      <trkpt lat="45.534870028" lon="5.321388021">
        <ele>448.000000</ele>
        <time>2024-11-01T08:21:48Z</time>
      </trkpt>
      <trkpt lat="45.535118971" lon="5.321160033">
        <ele>446.000000</ele>
        <time>2024-11-01T08:23:10Z</time>
      </trkpt>
      <trkpt lat="45.535369003" lon="5.320968004">
        <ele>445.000000</ele>
        <time>2024-11-01T08:23:36Z</time>
      </trkpt>
      <trkpt lat="45.535634039" lon="5.320888041">
        <ele>445.000000</ele>
        <time>2024-11-01T08:24:06Z</time>
      </trkpt>
      <trkpt lat="45.535906032" lon="5.320772035">
        <ele>443.000000</ele>
        <time>2024-11-01T08:24:28Z</time>
      </trkpt>
      <trkpt lat="45.536175007" lon="5.320615964">
        <ele>441.000000</ele>
        <time>2024-11-01T08:24:54Z</time>
      </trkpt>
      <trkpt lat="45.536451023" lon="5.320486967">
        <ele>440.000000</ele>
        <time>2024-11-01T08:25:16Z</time>
      </trkpt>
      <trkpt lat="45.536728967" lon="5.320315976">
        <ele>439.000000</ele>
        <time>2024-11-01T08:25:40Z</time>
      </trkpt>
      <trkpt lat="45.536888978" lon="5.320019005">
        <ele>437.000000</ele>
        <time>2024-11-01T08:26:15Z</time>
      </trkpt>
      <trkpt lat="45.536968019" lon="5.319630001">
        <ele>434.000000</ele>
        <time>2024-11-01T08:26:35Z</time>
      </trkpt>
      <trkpt lat="45.537069021" lon="5.319281984">
        <ele>431.000000</ele>
        <time>2024-11-01T08:27:00Z</time>
      </trkpt>
      <trkpt lat="45.537340008" lon="5.319228005">
        <ele>428.000000</ele>
        <time>2024-11-01T08:27:24Z</time>
      </trkpt>
      <trkpt lat="45.537624992" lon="5.319236973">
        <ele>426.000000</ele>
        <time>2024-11-01T08:27:48Z</time>
      </trkpt>
      <trkpt lat="45.537730018" lon="5.319602005">
        <ele>426.000000</ele>
        <time>2024-11-01T08:28:11Z</time>
      </trkpt>
      <trkpt lat="45.537797995" lon="5.319986986">
        <ele>425.000000</ele>
        <time>2024-11-01T08:28:35Z</time>
      </trkpt>
      <trkpt lat="45.538078034" lon="5.319990003">
        <ele>424.000000</ele>
        <time>2024-11-01T08:29:02Z</time>
      </trkpt>
      <trkpt lat="45.538338041" lon="5.319838962">
        <ele>424.000000</ele>
        <time>2024-11-01T08:29:24Z</time>
      </trkpt>
      <trkpt lat="45.538695026" lon="5.319853965">
        <ele>424.000000</ele>
        <time>2024-11-01T08:29:56Z</time>
      </trkpt>
      <trkpt lat="45.538749006" lon="5.320253028">
        <ele>423.000000</ele>
        <time>2024-11-01T08:30:19Z</time>
      </trkpt>
      <trkpt lat="45.538799968" lon="5.320654018">
        <ele>422.000000</ele>
        <time>2024-11-01T08:30:44Z</time>
      </trkpt>
      <trkpt lat="45.538865011" lon="5.321048973">
        <ele>421.000000</ele>
        <time>2024-11-01T08:31:08Z</time>
      </trkpt>
      <trkpt lat="45.538966013" lon="5.321455998">
        <ele>421.000000</ele>
        <time>2024-11-01T08:31:31Z</time>
      </trkpt>
      <trkpt lat="45.539069027" lon="5.321868975">
        <ele>419.000000</ele>
        <time>2024-11-01T08:31:58Z</time>
      </trkpt>
      <trkpt lat="45.539394999" lon="5.322019011">
        <ele>418.000000</ele>
        <time>2024-11-01T08:32:42Z</time>
      </trkpt>
      <trkpt lat="45.539638996" lon="5.321813989">
        <ele>416.000000</ele>
        <time>2024-11-01T08:34:18Z</time>
      </trkpt>
      <trkpt lat="45.539885005" lon="5.321580973">
        <ele>411.000000</ele>
        <time>2024-11-01T08:34:50Z</time>
      </trkpt>
      <trkpt lat="45.540134031" lon="5.321361031">
        <ele>402.000000</ele>
        <time>2024-11-01T08:35:18Z</time>
      </trkpt>
      <trkpt lat="45.540323965" lon="5.321047967">
        <ele>395.000000</ele>
        <time>2024-11-01T08:35:44Z</time>
      </trkpt>
      <trkpt lat="45.540541979" lon="5.320795001">
        <ele>391.000000</ele>
        <time>2024-11-01T08:36:12Z</time>
      </trkpt>
      <trkpt lat="45.540716993" lon="5.320485961">
        <ele>387.000000</ele>
        <time>2024-11-01T08:36:39Z</time>
      </trkpt>
      <trkpt lat="45.540891001" lon="5.320189996">
        <ele>384.000000</ele>
        <time>2024-11-01T08:36:58Z</time>
      </trkpt>
      <trkpt lat="45.541144973" lon="5.319734020">
        <ele>380.000000</ele>
        <time>2024-11-01T08:37:29Z</time>
      </trkpt>
      <trkpt lat="45.541309007" lon="5.319425985">
        <ele>375.000000</ele>
        <time>2024-11-01T08:37:51Z</time>
      </trkpt>
      <trkpt lat="45.541471029" lon="5.319118034">
        <ele>372.000000</ele>
        <time>2024-11-01T08:38:13Z</time>
      </trkpt>
      <trkpt lat="45.541672027" lon="5.318843024">
        <ele>369.000000</ele>
        <time>2024-11-01T08:38:38Z</time>
      </trkpt>
      <trkpt lat="45.541853998" lon="5.318557033">
        <ele>366.000000</ele>
        <time>2024-11-01T08:39:02Z</time>
      </trkpt>
      <trkpt lat="45.542062959" lon="5.318273976">
        <ele>361.000000</ele>
        <time>2024-11-01T08:39:26Z</time>
      </trkpt>
      <trkpt lat="45.542210983" lon="5.317923026">
        <ele>355.000000</ele>
        <time>2024-11-01T08:39:50Z</time>
      </trkpt>
      <trkpt lat="45.542414999" lon="5.317756981">
        <ele>352.000000</ele>
        <time>2024-11-01T08:40:42Z</time>
      </trkpt>
      <trkpt lat="45.542477025" lon="5.318291998">
        <ele>355.000000</ele>
        <time>2024-11-01T08:41:21Z</time>
      </trkpt>
      <trkpt lat="45.542623959" lon="5.318634985">
        <ele>357.000000</ele>
        <time>2024-11-01T08:41:44Z</time>
      </trkpt>
      <trkpt lat="45.542658996" lon="5.319015021">
        <ele>359.000000</ele>
        <time>2024-11-01T08:42:11Z</time>
      </trkpt>
      <trkpt lat="45.542681040" lon="5.319453981">
        <ele>361.000000</ele>
        <time>2024-11-01T08:42:42Z</time>
      </trkpt>
      <trkpt lat="45.542772990" lon="5.319838040">
        <ele>364.000000</ele>
        <time>2024-11-01T08:43:09Z</time>
      </trkpt>
      <trkpt lat="45.542897042" lon="5.320207011">
        <ele>366.000000</ele>
        <time>2024-11-01T08:43:41Z</time>
      </trkpt>
      <trkpt lat="45.543057974" lon="5.320554022">
        <ele>367.000000</ele>
        <time>2024-11-01T08:44:11Z</time>
      </trkpt>
      <trkpt lat="45.543194013" lon="5.320921987">
        <ele>369.000000</ele>
        <time>2024-11-01T08:44:37Z</time>
      </trkpt>
      <trkpt lat="45.543390987" lon="5.321258018">
        <ele>369.000000</ele>
        <time>2024-11-01T08:45:08Z</time>
      </trkpt>
      <trkpt lat="45.543505987" lon="5.321636042">
        <ele>371.000000</ele>
        <time>2024-11-01T08:45:35Z</time>
      </trkpt>
      <trkpt lat="45.543669015" lon="5.321976012">
        <ele>372.000000</ele>
        <time>2024-11-01T08:46:02Z</time>
      </trkpt>
      <trkpt lat="45.543839000" lon="5.322297961">
        <ele>371.000000</ele>
        <time>2024-11-01T08:46:32Z</time>
      </trkpt>
      <trkpt lat="45.543917036" lon="5.322695011">
        <ele>373.000000</ele>
        <time>2024-11-01T08:46:53Z</time>
      </trkpt>
      <trkpt lat="45.543992976" lon="5.323085021">
        <ele>377.000000</ele>
        <time>2024-11-01T08:47:21Z</time>
      </trkpt>
      <trkpt lat="45.544000017" lon="5.323658008">
        <ele>375.000000</ele>
        <time>2024-11-01T08:48:08Z</time>
      </trkpt>
      <trkpt lat="45.543858027" lon="5.324005019">
        <ele>375.000000</ele>
        <time>2024-11-01T08:48:40Z</time>
      </trkpt>
      <trkpt lat="45.543745961" lon="5.324400980">
        <ele>376.000000</ele>
        <time>2024-11-01T08:49:05Z</time>
      </trkpt>
      <trkpt lat="45.543611012" lon="5.324934991">
        <ele>377.000000</ele>
        <time>2024-11-01T08:49:44Z</time>
      </trkpt>
      <trkpt lat="45.543497019" lon="5.325315027">
        <ele>379.000000</ele>
        <time>2024-11-01T08:50:06Z</time>
      </trkpt>
      <trkpt lat="45.543431975" lon="5.325701013">
        <ele>379.000000</ele>
        <time>2024-11-01T08:50:29Z</time>
      </trkpt>
      <trkpt lat="45.543358969" lon="5.326104015">
        <ele>380.000000</ele>
        <time>2024-11-01T08:50:51Z</time>
      </trkpt>
      <trkpt lat="45.543258972" lon="5.326490002">
        <ele>381.000000</ele>
        <time>2024-11-01T08:51:20Z</time>
      </trkpt>
      <trkpt lat="45.543187978" lon="5.326882023">
        <ele>380.000000</ele>
        <time>2024-11-01T08:51:53Z</time>
      </trkpt>
      <trkpt lat="45.543115977" lon="5.327273961">
        <ele>381.000000</ele>
        <time>2024-11-01T08:52:20Z</time>
      </trkpt>
      <trkpt lat="45.543080019" lon="5.327746030">
        <ele>382.000000</ele>
        <time>2024-11-01T08:52:54Z</time>
      </trkpt>
      <trkpt lat="45.543008018" lon="5.328141991">
        <ele>382.000000</ele>
        <time>2024-11-01T08:53:21Z</time>
      </trkpt>
      <trkpt lat="45.543135004" lon="5.328508029">
        <ele>380.000000</ele>
        <time>2024-11-01T08:54:06Z</time>
      </trkpt>
      <trkpt lat="45.543390987" lon="5.328384982">
        <ele>375.000000</ele>
        <time>2024-11-01T08:55:03Z</time>
      </trkpt>
      <trkpt lat="45.543761970" lon="5.328145009">
        <ele>367.000000</ele>
        <time>2024-11-01T08:56:07Z</time>
      </trkpt>
      <trkpt lat="45.543918042" lon="5.327789029">
        <ele>364.000000</ele>
        <time>2024-11-01T08:56:49Z</time>
      </trkpt>
      <trkpt lat="45.544043016" lon="5.327442018">
        <ele>362.000000</ele>
        <time>2024-11-01T08:57:21Z</time>
      </trkpt>
      <trkpt lat="45.544151980" lon="5.327069024">
        <ele>358.000000</ele>
        <time>2024-11-01T08:57:49Z</time>
      </trkpt>
      <trkpt lat="45.544286007" lon="5.326720001">
        <ele>358.000000</ele>
        <time>2024-11-01T08:58:23Z</time>
      </trkpt>
      <trkpt lat="45.544468984" lon="5.326438034">
        <ele>356.000000</ele>
        <time>2024-11-01T08:58:52Z</time>
      </trkpt>
      <trkpt lat="45.544609968" lon="5.326109966">
        <ele>356.000000</ele>
        <time>2024-11-01T08:59:27Z</time>
      </trkpt>
      <trkpt lat="45.544754975" lon="5.325602023">
        <ele>354.000000</ele>
        <time>2024-11-01T09:00:41Z</time>
      </trkpt>
      <trkpt lat="45.544982040" lon="5.325346040">
        <ele>359.000000</ele>
        <time>2024-11-01T09:07:35Z</time>
      </trkpt>
      <trkpt lat="45.545231989" lon="5.325803021">
        <ele>376.000000</ele>
        <time>2024-11-01T09:08:43Z</time>
      </trkpt>
      <trkpt lat="45.545102991" lon="5.326098986">
        <ele>375.000000</ele>
        <time>2024-11-01T09:09:11Z</time>
      </trkpt>
      <trkpt lat="45.545055969" lon="5.326470975">
        <ele>379.000000</ele>
        <time>2024-11-01T09:09:50Z</time>
      </trkpt>
      <trkpt lat="45.545103997" lon="5.326859979">
        <ele>383.000000</ele>
        <time>2024-11-01T09:10:28Z</time>
      </trkpt>
      <trkpt lat="45.545227965" lon="5.327215036">
        <ele>386.000000</ele>
        <time>2024-11-01T09:11:10Z</time>
      </trkpt>
      <trkpt lat="45.545549998" lon="5.327505972">
        <ele>393.000000</ele>
        <time>2024-11-01T09:12:16Z</time>
      </trkpt>
      <trkpt lat="45.545813022" lon="5.327300029">
        <ele>399.000000</ele>
        <time>2024-11-01T09:14:23Z</time>
      </trkpt>
      <trkpt lat="45.546032963" lon="5.327523993">
        <ele>401.000000</ele>
        <time>2024-11-01T09:15:24Z</time>
      </trkpt>
      <trkpt lat="45.546087027" lon="5.327941999">
        <ele>401.000000</ele>
        <time>2024-11-01T09:15:51Z</time>
      </trkpt>
      <trkpt lat="45.546089960" lon="5.328358999">
        <ele>401.000000</ele>
        <time>2024-11-01T09:16:17Z</time>
      </trkpt>
      <trkpt lat="45.546014020" lon="5.328730987">
        <ele>400.000000</ele>
        <time>2024-11-01T09:16:44Z</time>
      </trkpt>
      <trkpt lat="45.545935985" lon="5.329113035">
        <ele>400.000000</ele>
        <time>2024-11-01T09:17:07Z</time>
      </trkpt>
      <trkpt lat="45.545756025" lon="5.329430960">
        <ele>397.000000</ele>
        <time>2024-11-01T09:17:26Z</time>
      </trkpt>
      <trkpt lat="45.545603978" lon="5.329806972">
        <ele>397.000000</ele>
        <time>2024-11-01T09:17:54Z</time>
      </trkpt>
      <trkpt lat="45.545868007" lon="5.330047030">
        <ele>405.000000</ele>
        <time>2024-11-01T09:19:04Z</time>
      </trkpt>
      <trkpt lat="45.546148969" lon="5.330018029">
        <ele>417.000000</ele>
        <time>2024-11-01T09:20:09Z</time>
      </trkpt>
      <trkpt lat="45.546264974" lon="5.329664983">
        <ele>418.000000</ele>
        <time>2024-11-01T09:20:44Z</time>
      </trkpt>
      <trkpt lat="45.546492040" lon="5.329251001">
        <ele>424.000000</ele>
        <time>2024-11-01T09:21:37Z</time>
      </trkpt>
      <trkpt lat="45.546618020" lon="5.328725036">
        <ele>424.000000</ele>
        <time>2024-11-01T09:22:23Z</time>
      </trkpt>
      <trkpt lat="45.546833016" lon="5.328448014">
        <ele>425.000000</ele>
        <time>2024-11-01T09:23:12Z</time>
      </trkpt>
      <trkpt lat="45.546745006" lon="5.328975990">
        <ele>425.000000</ele>
        <time>2024-11-01T09:24:24Z</time>
      </trkpt>
      <trkpt lat="45.546666970" lon="5.329356026">
        <ele>427.000000</ele>
        <time>2024-11-01T09:24:53Z</time>
      </trkpt>
      <trkpt lat="45.546607962" lon="5.329750981">
        <ele>428.000000</ele>
        <time>2024-11-01T09:25:17Z</time>
      </trkpt>
      <trkpt lat="45.546572004" lon="5.330148032">
        <ele>430.000000</ele>
        <time>2024-11-01T09:25:40Z</time>
      </trkpt>
      <trkpt lat="45.546521042" lon="5.330555979">
        <ele>432.000000</ele>
        <time>2024-11-01T09:26:04Z</time>
      </trkpt>
      <trkpt lat="45.546449963" lon="5.330956969">
        <ele>433.000000</ele>
        <time>2024-11-01T09:26:31Z</time>
      </trkpt>
      <trkpt lat="45.546426997" lon="5.331376987">
        <ele>434.000000</ele>
        <time>2024-11-01T09:27:00Z</time>
      </trkpt>
      <trkpt lat="45.546388021" lon="5.331828017">
        <ele>436.000000</ele>
        <time>2024-11-01T09:27:29Z</time>
      </trkpt>
      <trkpt lat="45.546343010" lon="5.332209980">
        <ele>437.000000</ele>
        <time>2024-11-01T09:27:53Z</time>
      </trkpt>
      <trkpt lat="45.546348039" lon="5.332614994">
        <ele>440.000000</ele>
        <time>2024-11-01T09:28:17Z</time>
      </trkpt>
      <trkpt lat="45.546322977" lon="5.333006009">
        <ele>440.000000</ele>
        <time>2024-11-01T09:28:43Z</time>
      </trkpt>
      <trkpt lat="45.546195991" lon="5.333371963">
        <ele>440.000000</ele>
        <time>2024-11-01T09:29:06Z</time>
      </trkpt>
      <trkpt lat="45.546021983" lon="5.333720986">
        <ele>440.000000</ele>
        <time>2024-11-01T09:29:34Z</time>
      </trkpt>
      <trkpt lat="45.545830037" lon="5.333995996">
        <ele>440.000000</ele>
        <time>2024-11-01T09:29:56Z</time>
      </trkpt>
      <trkpt lat="45.545609007" lon="5.334322974">
        <ele>440.000000</ele>
        <time>2024-11-01T09:30:24Z</time>
      </trkpt>
      <trkpt lat="45.545418989" lon="5.334689012">
        <ele>441.000000</ele>
        <time>2024-11-01T09:30:52Z</time>
      </trkpt>
      <trkpt lat="45.545185972" lon="5.334915994">
        <ele>442.000000</ele>
        <time>2024-11-01T09:31:15Z</time>
      </trkpt>
      <trkpt lat="45.544908028" lon="5.334933009">
        <ele>442.000000</ele>
        <time>2024-11-01T09:31:40Z</time>
      </trkpt>
      <trkpt lat="45.544505026" lon="5.334982965">
        <ele>443.000000</ele>
        <time>2024-11-01T09:32:11Z</time>
      </trkpt>
      <trkpt lat="45.544091966" lon="5.334920017">
        <ele>442.000000</ele>
        <time>2024-11-01T09:32:48Z</time>
      </trkpt>
      <trkpt lat="45.543811005" lon="5.334852040">
        <ele>440.000000</ele>
        <time>2024-11-01T09:33:10Z</time>
      </trkpt>
      <trkpt lat="45.543532977" lon="5.334836030">
        <ele>438.000000</ele>
        <time>2024-11-01T09:33:35Z</time>
      </trkpt>
      <trkpt lat="45.543173980" lon="5.335119003">
        <ele>439.000000</ele>
        <time>2024-11-01T09:34:11Z</time>
      </trkpt>
      <trkpt lat="45.542963007" lon="5.335414968">
        <ele>437.000000</ele>
        <time>2024-11-01T09:34:40Z</time>
      </trkpt>
      <trkpt lat="45.542761004" lon="5.335681010">
        <ele>434.000000</ele>
        <time>2024-11-01T09:35:07Z</time>
      </trkpt>
      <trkpt lat="45.542563023" lon="5.335943028">
        <ele>432.000000</ele>
        <time>2024-11-01T09:35:27Z</time>
      </trkpt>
      <trkpt lat="45.542361019" lon="5.336234970">
        <ele>432.000000</ele>
        <time>2024-11-01T09:35:51Z</time>
      </trkpt>
      <trkpt lat="45.542135965" lon="5.336493971">
        <ele>432.000000</ele>
        <time>2024-11-01T09:36:20Z</time>
      </trkpt>
      <trkpt lat="45.541933039" lon="5.336788008">
        <ele>432.000000</ele>
        <time>2024-11-01T09:36:44Z</time>
      </trkpt>
      <trkpt lat="45.541714020" lon="5.337025970">
        <ele>433.000000</ele>
        <time>2024-11-01T09:37:07Z</time>
      </trkpt>
      <trkpt lat="45.541496007" lon="5.337263010">
        <ele>433.000000</ele>
        <time>2024-11-01T09:37:32Z</time>
      </trkpt>
      <trkpt lat="45.541296015" lon="5.337581020">
        <ele>434.000000</ele>
        <time>2024-11-01T09:38:49Z</time>
      </trkpt>
      <trkpt lat="45.541154025" lon="5.337928031">
        <ele>433.000000</ele>
        <time>2024-11-01T09:39:14Z</time>
      </trkpt>
      <trkpt lat="45.540917991" lon="5.338144032">
        <ele>429.000000</ele>
        <time>2024-11-01T09:39:34Z</time>
      </trkpt>
      <trkpt lat="45.540627977" lon="5.338121988">
        <ele>425.000000</ele>
        <time>2024-11-01T09:39:54Z</time>
      </trkpt>
      <trkpt lat="45.540337041" lon="5.338056022">
        <ele>422.000000</ele>
        <time>2024-11-01T09:40:15Z</time>
      </trkpt>
      <trkpt lat="45.540049039" lon="5.338048982">
        <ele>418.000000</ele>
        <time>2024-11-01T09:40:39Z</time>
      </trkpt>
      <trkpt lat="45.539828008" lon="5.338276969">
        <ele>410.000000</ele>
        <time>2024-11-01T09:41:05Z</time>
      </trkpt>
      <trkpt lat="45.539723989" lon="5.338668991">
        <ele>411.000000</ele>
        <time>2024-11-01T09:41:30Z</time>
      </trkpt>
      <trkpt lat="45.539657017" lon="5.339066964">
        <ele>414.000000</ele>
        <time>2024-11-01T09:41:53Z</time>
      </trkpt>
      <trkpt lat="45.539630027" lon="5.339469966">
        <ele>417.000000</ele>
        <time>2024-11-01T09:42:17Z</time>
      </trkpt>
      <trkpt lat="45.539686019" lon="5.339875985">
        <ele>418.000000</ele>
        <time>2024-11-01T09:42:41Z</time>
      </trkpt>
      <trkpt lat="45.539741004" lon="5.340262977">
        <ele>418.000000</ele>
        <time>2024-11-01T09:43:03Z</time>
      </trkpt>
      <trkpt lat="45.539805964" lon="5.340660028">
        <ele>417.000000</ele>
        <time>2024-11-01T09:43:26Z</time>
      </trkpt>
      <trkpt lat="45.539859021" lon="5.341058001">
        <ele>416.000000</ele>
        <time>2024-11-01T09:43:49Z</time>
      </trkpt>
      <trkpt lat="45.539664980" lon="5.341266962">
        <ele>412.000000</ele>
        <time>2024-11-01T09:45:24Z</time>
      </trkpt>
      <trkpt lat="45.539404973" lon="5.341109969">
        <ele>408.000000</ele>
        <time>2024-11-01T09:45:48Z</time>
      </trkpt>
      <trkpt lat="45.539142033" lon="5.340996981">
        <ele>404.000000</ele>
        <time>2024-11-01T09:46:14Z</time>
      </trkpt>
      <trkpt lat="45.538913961" lon="5.340785002">
        <ele>401.000000</ele>
        <time>2024-11-01T09:46:37Z</time>
      </trkpt>
      <trkpt lat="45.538684968" lon="5.340545028">
        <ele>398.000000</ele>
        <time>2024-11-01T09:47:03Z</time>
      </trkpt>
      <trkpt lat="45.538426973" lon="5.340354005">
        <ele>394.000000</ele>
        <time>2024-11-01T09:47:27Z</time>
      </trkpt>
      <trkpt lat="45.538145006" lon="5.340233976">
        <ele>391.000000</ele>
        <time>2024-11-01T09:47:53Z</time>
      </trkpt>
      <trkpt lat="45.537744015" lon="5.340314023">
        <ele>389.000000</ele>
        <time>2024-11-01T09:48:50Z</time>
      </trkpt>
      <trkpt lat="45.537485015" lon="5.340489959">
        <ele>387.000000</ele>
        <time>2024-11-01T09:49:13Z</time>
      </trkpt>
      <trkpt lat="45.537193995" lon="5.340625998">
        <ele>386.000000</ele>
        <time>2024-11-01T09:49:38Z</time>
      </trkpt>
      <trkpt lat="45.536919991" lon="5.340693975">
        <ele>385.000000</ele>
        <time>2024-11-01T09:50:00Z</time>
      </trkpt>
      <trkpt lat="45.536657972" lon="5.340810986">
        <ele>387.000000</ele>
        <time>2024-11-01T09:50:51Z</time>
      </trkpt>
      <trkpt lat="45.536414981" lon="5.341052972">
        <ele>391.000000</ele>
        <time>2024-11-01T09:51:30Z</time>
      </trkpt>
      <trkpt lat="45.536210965" lon="5.341321025">
        <ele>392.000000</ele>
        <time>2024-11-01T09:51:52Z</time>
      </trkpt>
      <trkpt lat="45.536032012" lon="5.341648003">
        <ele>393.000000</ele>
        <time>2024-11-01T09:52:19Z</time>
      </trkpt>
      <trkpt lat="45.535845011" lon="5.341937011">
        <ele>396.000000</ele>
        <time>2024-11-01T09:52:39Z</time>
      </trkpt>
      <trkpt lat="45.535630016" lon="5.342182014">
        <ele>397.000000</ele>
        <time>2024-11-01T09:53:36Z</time>
      </trkpt>
      <trkpt lat="45.535361962" lon="5.342378989">
        <ele>399.000000</ele>
        <time>2024-11-01T09:54:08Z</time>
      </trkpt>
      <trkpt lat="45.535078989" lon="5.342503041">
        <ele>401.000000</ele>
        <time>2024-11-01T09:54:32Z</time>
      </trkpt>
      <trkpt lat="45.534800962" lon="5.342566995">
        <ele>401.000000</ele>
        <time>2024-11-01T09:54:54Z</time>
      </trkpt>
      <trkpt lat="45.534464009" lon="5.342853991">
        <ele>403.000000</ele>
        <time>2024-11-01T09:56:46Z</time>
      </trkpt>
      <trkpt lat="45.534226969" lon="5.343326982">
        <ele>405.000000</ele>
        <time>2024-11-01T09:57:22Z</time>
      </trkpt>
      <trkpt lat="45.534029994" lon="5.343596963">
        <ele>407.000000</ele>
        <time>2024-11-01T09:57:48Z</time>
      </trkpt>
      <trkpt lat="45.533631016" lon="5.343593024">
        <ele>414.000000</ele>
        <time>2024-11-01T09:58:56Z</time>
      </trkpt>
      <trkpt lat="45.533313006" lon="5.343505014">
        <ele>420.000000</ele>
        <time>2024-11-01T10:00:02Z</time>
      </trkpt>
      <trkpt lat="45.533036990" lon="5.343501996">
        <ele>423.000000</ele>
        <time>2024-11-01T10:00:46Z</time>
      </trkpt>
      <trkpt lat="45.532766003" lon="5.343584977">
        <ele>427.000000</ele>
        <time>2024-11-01T10:01:22Z</time>
      </trkpt>
      <trkpt lat="45.532488981" lon="5.343607021">
        <ele>430.000000</ele>
        <time>2024-11-01T10:02:01Z</time>
      </trkpt>
      <trkpt lat="45.532208020" lon="5.343677010">
        <ele>434.000000</ele>
        <time>2024-11-01T10:02:31Z</time>
      </trkpt>
      <trkpt lat="45.531935021" lon="5.343726967">
        <ele>437.000000</ele>
        <time>2024-11-01T10:03:05Z</time>
      </trkpt>
      <trkpt lat="45.531650037" lon="5.343726967">
        <ele>437.000000</ele>
        <time>2024-11-01T10:03:34Z</time>
      </trkpt>
      <trkpt lat="45.531359017" lon="5.343746999">
        <ele>436.000000</ele>
        <time>2024-11-01T10:04:05Z</time>
      </trkpt>
      <trkpt lat="45.530995997" lon="5.343975993">
        <ele>441.000000</ele>
        <time>2024-11-01T10:04:47Z</time>
      </trkpt>
      <trkpt lat="45.530725010" lon="5.344099961">
        <ele>442.000000</ele>
        <time>2024-11-01T10:05:13Z</time>
      </trkpt>
      <trkpt lat="45.530468021" lon="5.344223008">
        <ele>443.000000</ele>
        <time>2024-11-01T10:05:41Z</time>
      </trkpt>
      <trkpt lat="45.530274985" lon="5.344502041">
        <ele>450.000000</ele>
        <time>2024-11-01T10:06:17Z</time>
      </trkpt>
      <trkpt lat="45.530024031" lon="5.344687030">
        <ele>457.000000</ele>
        <time>2024-11-01T10:07:03Z</time>
      </trkpt>
      <trkpt lat="45.529865026" lon="5.345002022">
        <ele>461.000000</ele>
        <time>2024-11-01T10:07:29Z</time>
      </trkpt>
      <trkpt lat="45.529695041" lon="5.345323971">
        <ele>462.000000</ele>
        <time>2024-11-01T10:07:56Z</time>
      </trkpt>
      <trkpt lat="45.529442998" lon="5.345788999">
        <ele>463.000000</ele>
        <time>2024-11-01T10:08:36Z</time>
      </trkpt>
      <trkpt lat="45.529292962" lon="5.346127963">
        <ele>463.000000</ele>
        <time>2024-11-01T10:08:58Z</time>
      </trkpt>
      <trkpt lat="45.529115014" lon="5.346478997">
        <ele>463.000000</ele>
        <time>2024-11-01T10:09:25Z</time>
      </trkpt>
      <trkpt lat="45.528877974" lon="5.346688041">
        <ele>464.000000</ele>
        <time>2024-11-01T10:09:47Z</time>
      </trkpt>
      <trkpt lat="45.528643029" lon="5.346902031">
        <ele>466.000000</ele>
        <time>2024-11-01T10:10:09Z</time>
      </trkpt>
      <trkpt lat="45.528404983" lon="5.347068999">
        <ele>467.000000</ele>
        <time>2024-11-01T10:10:30Z</time>
      </trkpt>
      <trkpt lat="45.528125027" lon="5.347133037">
        <ele>467.000000</ele>
        <time>2024-11-01T10:11:18Z</time>
      </trkpt>
      <trkpt lat="45.527848005" lon="5.347075034">
        <ele>468.000000</ele>
        <time>2024-11-01T10:11:48Z</time>
      </trkpt>
      <trkpt lat="45.527558997" lon="5.347059024">
        <ele>469.000000</ele>
        <time>2024-11-01T10:12:13Z</time>
      </trkpt>
      <trkpt lat="45.527279042" lon="5.347019965">
        <ele>471.000000</ele>
        <time>2024-11-01T10:12:33Z</time>
      </trkpt>
      <trkpt lat="45.527013000" lon="5.347085008">
        <ele>473.000000</ele>
        <time>2024-11-01T10:13:00Z</time>
      </trkpt>
      <trkpt lat="45.526847038" lon="5.347396983">
        <ele>473.000000</ele>
        <time>2024-11-01T10:13:23Z</time>
      </trkpt>
      <trkpt lat="45.526719969" lon="5.347785987">
        <ele>474.000000</ele>
        <time>2024-11-01T10:13:48Z</time>
      </trkpt>
      <trkpt lat="45.526590971" lon="5.348189995">
        <ele>475.000000</ele>
        <time>2024-11-01T10:14:14Z</time>
      </trkpt>
      <trkpt lat="45.526405983" lon="5.348471962">
        <ele>477.000000</ele>
        <time>2024-11-01T10:14:37Z</time>
      </trkpt>
      <trkpt lat="45.526143964" lon="5.348619986">
        <ele>482.000000</ele>
        <time>2024-11-01T10:15:32Z</time>
      </trkpt>
      <trkpt lat="45.525887981" lon="5.348777985">
        <ele>488.000000</ele>
        <time>2024-11-01T10:16:04Z</time>
      </trkpt>
      <trkpt lat="45.525654964" lon="5.349031035">
        <ele>491.000000</ele>
        <time>2024-11-01T10:16:36Z</time>
      </trkpt>
      <trkpt lat="45.525659993" lon="5.349443005">
        <ele>492.000000</ele>
        <time>2024-11-01T10:17:22Z</time>
      </trkpt>
      <trkpt lat="45.525564020" lon="5.349805020">
        <ele>493.000000</ele>
        <time>2024-11-01T10:17:53Z</time>
      </trkpt>
      <trkpt lat="45.525479028" lon="5.350187989">
        <ele>496.000000</ele>
        <time>2024-11-01T10:18:19Z</time>
      </trkpt>
      <trkpt lat="45.525403004" lon="5.350757958">
        <ele>499.000000</ele>
        <time>2024-11-01T10:19:03Z</time>
      </trkpt>
      <trkpt lat="45.525321029" lon="5.351132965">
        <ele>501.000000</ele>
        <time>2024-11-01T10:19:31Z</time>
      </trkpt>
      <trkpt lat="45.525213992" lon="5.351490034">
        <ele>502.000000</ele>
        <time>2024-11-01T10:20:00Z</time>
      </trkpt>
      <trkpt lat="45.525048031" lon="5.351789016">
        <ele>502.000000</ele>
        <time>2024-11-01T10:20:24Z</time>
      </trkpt>
      <trkpt lat="45.524920961" lon="5.352122029">
        <ele>502.000000</ele>
        <time>2024-11-01T10:20:52Z</time>
      </trkpt>
      <trkpt lat="45.524819959" lon="5.352507010">
        <ele>502.000000</ele>
        <time>2024-11-01T10:21:18Z</time>
      </trkpt>
      <trkpt lat="45.524785006" lon="5.352906995">
        <ele>502.000000</ele>
        <time>2024-11-01T10:21:41Z</time>
      </trkpt>
      <trkpt lat="45.524966978" lon="5.353191979">
        <ele>502.000000</ele>
        <time>2024-11-01T10:22:04Z</time>
      </trkpt>
      <trkpt lat="45.525092036" lon="5.353130037">
        <ele>502.000000</ele>
        <time>2024-11-01T10:22:41Z</time>
      </trkpt>
    </trkseg>
  </trk>
</gpx>
